• Join FlightAware (Why Join?)
  • Login
  • US Flag 
Trick or treat! (Boo!!) 
05:34PM EDT


 

Airport Tracker/Info


-or-


 

Live Flight TrackerFlight Track Log ✈ SWA3675 ✈ 10-May-2013 ✈ KALB - KBWI

Flight Track Log - Related Links

Times and Time Zones

All times are in EDT time to prevent confusion due to time zone crossing. See the SWA3675 flight status page for this flight to view local times or setup timezone preferences in your user account.

Time Position Orientation Groundspeed Altitude Reporting Facility
EDT Latitude Longitude Course Direction KTS MPH feet Rate Location/Type
06:13PM 42.7339 -73.8081 227° Southwest 134 154 1,200  Level Boston Center
06:14PM 42.7106 -73.8417 227° Southwest 194 223 2,800 2,400 Climbing Boston Center
06:15PM 42.7203 -73.8956 284° West 221 254 5,200 3,180 Climbing Boston Center
06:16PM 42.7739 -73.9392 329° Northwest 203 234 8,500 3,480 Climbing Boston Center
06:17PM 42.8297 -73.9803 332° Northwest 208 239 12,200 3,060 Climbing Boston Center
06:18PM 42.8814 -74.0128 335° Northwest 213 245 14,700 2,820 Climbing Boston Center
06:19PM 42.9158 -74.0900 301° West 212 244 17,900 2,400 Climbing Boston Center
06:20PM 42.9228 -74.1781 276° West 222 255 19,600 1,380 Climbing Boston Center
06:21PM 42.8489 -74.2383 211° Southwest 223 257 20,700 1,500 Climbing Boston Center
06:22PM 42.7531 -74.2414 181° South 271 312 22,600 1,560 Climbing Boston Center
06:23PM 42.6497 -74.1706 153° Southeast 327 376 23,900 1,860 Climbing Boston Center
06:24PM 42.5444 -74.1083 156° South 372 428 26,400 2,040 Climbing Boston Center
06:25PM 42.4303 -74.0828 171° South 402 463 28,000 780 Climbing Boston Center
06:26PM 42.3181 -74.0603 172° South 416 479 28,000  Level Boston Center
06:27PM 42.1933 -74.0317 170° South 432 497 28,000  Level Boston Center
06:28PM 42.0708 -74.0036 170° South 445 512 28,000  Level Boston Center
06:29PM 41.9481 -73.9753 170° South 450 518 28,000  Level Boston Center
06:31PM 41.7089 -74.0028 185° South 407 468 28,000  Level New York Center
06:32PM 41.5928 -74.0553 199° South 413 475 28,000  Level New York Center
06:33PM 41.4831 -74.1053 199° South 420 483 28,000  Level New York Center
06:34PM 41.3714 -74.1522 198° South 431 496 28,000  Level New York Center
06:35PM 41.2553 -74.2042 199° South 431 496 28,000  Level New York Center
06:36PM 41.1375 -74.2506 197° South 437 503 28,000  Level New York Center
06:37PM 41.0233 -74.2997 198° South 437 503 28,000  Level New York Center
06:38PM 40.9075 -74.3486 198° South 437 503 28,000  Level New York Center
06:39PM 40.8150 -74.4369 216° Southwest 423 487 28,000  Level New York Center
06:40PM 40.7328 -74.5419 224° Southwest 410 472 28,000  Level New York Center
06:41PM 40.6542 -74.6500 226° Southwest 410 472 28,000 -300 Level New York Center
06:42PM 40.5736 -74.7519 224° Southwest 410 472 27,400 -840 Descending New York Center
06:43PM 40.4989 -74.8622 228° Southwest 410 472 26,400 -1,320 Descending New York Center
06:44PM 40.4222 -74.9694 227° Southwest 410 472 24,800 -1,800 Descending New York Center
06:45PM 40.3478 -75.0739 227° Southwest 405 466 22,800 -2,040 Descending New York Center
06:46PM 40.2750 -75.1781 228° Southwest 405 466 20,800 -1,920 Descending New York Center
06:47PM 40.2003 -75.2794 226° Southwest 399 459 19,000 -960 Descending New York Center
06:48PM 40.1364 -75.3703 227° Southwest 394 453 19,000  Level New York Center
06:49PM 40.0550 -75.4814 226° Southwest 394 453 19,000 -180 Level New York Center
06:50PM 39.9797 -75.5875 227° Southwest 394 453 18,700 -600 Descending New York Center
06:51PM 39.9067 -75.6933 228° Southwest 399 459 17,800 -1,020 Descending New York Center
06:52PM 39.8456 -75.8081 235° Southwest 399 459 16,700 -2,040 Descending New York Center
06:54PM 39.7500 -75.9833 235° Southwest 373 429 12,700 -1,860 Descending Potomac TRACON
06:55PM 39.7000 -76.0833 237° Southwest 326 375 12,000 -360 Descending Potomac TRACON
06:56PM 39.6500 -76.1667 232° Southwest 276 318 12,000 -600 Level Potomac TRACON
06:57PM 39.6167 -76.2500 243° Southwest 283 326 10,800 -1,140 Descending Potomac TRACON
06:58PM 39.5667 -76.3500 237° Southwest 274 315 9,800 -1,200 Descending Potomac TRACON
06:59PM 39.5333 -76.4333 243° Southwest 265 305 8,500 -1,440 Descending Potomac TRACON
07:00PM 39.5000 -76.5000 237° Southwest 258 297 7,000 -1,500 Descending Potomac TRACON
07:01PM 39.4667 -76.5833 243° Southwest 254 292 5,600 -1,260 Descending Potomac TRACON
07:02PM 39.4333 -76.6667 243° Southwest 252 290 4,500 -840 Descending Potomac TRACON
07:03PM 39.4000 -76.7333 237° Southwest 226 260 4,000 -300 Descending Potomac TRACON
07:04PM 39.3667 -76.8000 237° Southwest 201 231 4,000  Level Potomac TRACON
07:05PM 39.3500 -76.8667 252° West 201 231 4,100 -480 Climbing Potomac TRACON
07:06PM 39.3000 -76.8833 194° South 194 223 3,100 -540 Descending Potomac TRACON
07:07PM 39.2500 -76.9000 194° South 186 214 3,100 -480 Level Potomac TRACON
07:08PM 39.2000 -76.8667 153° Southeast 179 206 2,200 -840 Descending Potomac TRACON
07:09PM 39.1833 -76.8167 113° Southeast 171 197 1,500 -480 Descending Potomac TRACON
07:10PM 39.1833 -76.7500 90° East 146 168 1,300 -540 Descending Potomac TRACON
07:11PM 39.1833 -76.7000 90° East 137 158 500 -840 Descending Potomac TRACON
07:13PM 39.1754 -76.6683 108° East  Level Estimated
07:20PM 39.1754 -76.6683 293° West  Level Estimated
07:21PM 39.1754 -76.6683 293° West  Level Estimated
07:22PM 39.1754 -76.6683 293° West  Level Estimated